Time;durP1;ratioP1;P1;durP2;ratioP2;P2;SDS_P1;SDS_P2;PMS_P1;PMS_P2;Temp;Humidity;BMP_temperature;BMP_pressure;BME280_temperature;BME280_humidity;BME280_pressure;Samples;Min_cycle;Max_cycle;Signal;HPM_P1;HPM_P2
2020/12/28 00:01:03;;;;;;;20.45;10.65;;;;;;;-3.83;56.48;101125.94;5132912;27;20150;-64
2020/12/28 00:03:28;;;;;;;16.73;10.27;;;;;;;-4.05;57.16;101105.00;5133356;27;20036;-65
2020/12/28 00:05:53;;;;;;;17.70;10.50;;;;;;;-3.87;57.38;101130.28;5133423;27;20395;-64
2020/12/28 00:08:19;;;;;;;19.52;11.05;;;;;;;-4.42;56.89;101031.75;5114510;27;20115;-65
2020/12/28 00:10:44;;;;;;;16.63;9.88;;;;;;;-3.92;56.99;101121.56;5132100;27;20057;-66
2020/12/28 00:13:10;;;;;;;18.20;11.65;;;;;;;-4.03;56.58;101111.97;5133276;27;20035;-66
2020/12/28 00:15:35;;;;;;;21.08;10.95;;;;;;;-4.11;57.38;101115.44;5133200;27;20432;-65
2020/12/28 00:18:01;;;;;;;19.83;11.32;;;;;;;-4.29;57.56;101103.22;5132749;27;20031;-64
2020/12/28 00:20:29;;;;;;;17.77;10.95;;;;;;;-4.55;58.09;101091.88;5133257;27;20091;-64
2020/12/28 00:22:54;;;;;;;22.50;11.82;;;;;;;-4.28;58.00;101155.53;5114837;27;20113;-65
2020/12/28 00:25:24;;;;;;;21.55;11.40;;;;;;;-4.33;58.38;101152.03;5132943;27;20033;-66
2020/12/28 00:27:50;;;;;;;18.98;11.20;;;;;;;-4.29;58.22;101163.38;5132627;27;20050;-65
2020/12/28 00:30:16;;;;;;;21.35;12.15;;;;;;;-4.47;58.78;101136.28;5132632;27;20081;-65
2020/12/28 00:32:42;;;;;;;19.48;11.40;;;;;;;-4.35;58.47;101159.88;5132614;27;20498;-66
2020/12/28 00:35:09;;;;;;;19.17;11.95;;;;;;;-4.36;58.86;101167.69;5132289;27;20034;-67
2020/12/28 00:37:34;;;;;;;18.08;11.38;;;;;;;-4.68;58.44;101110.97;5132309;27;20407;-65
2020/12/28 00:40:00;;;;;;;21.33;11.55;;;;;;;-4.47;58.58;101158.09;5132192;27;20063;-63
2020/12/28 00:42:29;;;;;;;19.10;11.52;;;;;;;-4.51;58.79;101140.66;5114039;27;20031;-67
2020/12/28 00:44:54;;;;;;;19.15;11.13;;;;;;;-4.33;58.68;101167.75;5131357;27;20023;-64
2020/12/28 00:47:20;;;;;;;18.30;10.95;;;;;;;-4.32;58.43;101186.03;5131954;27;20031;-64
2020/12/28 00:49:45;;;;;;;18.15;11.10;;;;;;;-4.86;58.08;101070.84;5131899;27;20050;-65
2020/12/28 00:52:11;;;;;;;15.55;10.50;;;;;;;-4.65;58.60;101103.16;5132484;27;20038;-64
2020/12/28 00:54:36;;;;;;;17.67;11.73;;;;;;;-4.32;58.12;101162.50;5131856;27;20027;-64
2020/12/28 00:57:02;;;;;;;16.75;10.60;;;;;;;-4.35;58.27;101154.66;5131739;27;20428;-64
2020/12/28 00:59:28;;;;;;;20.13;10.55;;;;;;;-4.39;58.47;101159.84;5132274;27;20062;-64
2020/12/28 01:01:55;;;;;;;18.50;10.68;;;;;;;-4.38;58.35;101164.22;5131729;27;20505;-64
2020/12/28 01:04:20;;;;;;;19.73;10.88;;;;;;;-4.47;58.79;101152.88;5131742;27;20039;-64
2020/12/28 01:06:46;;;;;;;16.80;10.32;;;;;;;-4.60;58.50;101143.22;5131945;27;20390;-64
2020/12/28 01:09:11;;;;;;;16.67;10.10;;;;;;;-4.46;58.51;101153.75;5131526;27;20068;-64
2020/12/28 01:11:36;;;;;;;19.67;10.55;;;;;;;-4.60;58.42;101135.38;5131818;27;20039;-64
2020/12/28 01:14:02;;;;;;;18.30;10.48;;;;;;;-4.58;58.99;101157.22;5132056;27;20045;-65
2020/12/28 01:16:28;;;;;;;18.50;9.88;;;;;;;-4.71;58.73;101150.16;5131762;27;20031;-64
2020/12/28 01:18:53;;;;;;;19.70;10.57;;;;;;;-4.76;59.06;101148.41;5120155;27;20050;-63
2020/12/28 01:21:20;;;;;;;18.45;10.40;;;;;;;-4.78;59.30;101155.38;5111291;28;20122;-63
2020/12/28 01:23:46;;;;;;;17.77;9.75;;;;;;;-4.87;59.79;101138.78;5110921;28;20063;-66
2020/12/28 01:26:11;;;;;;;16.90;9.90;;;;;;;-4.74;59.30;101152.78;5110863;28;20114;-64
2020/12/28 01:28:36;;;;;;;17.17;9.95;;;;;;;-4.77;59.29;101158.84;5092830;28;20053;-66
2020/12/28 01:31:03;;;;;;;18.67;9.98;;;;;;;-4.73;59.65;101159.75;5111279;28;20051;-63
2020/12/28 01:33:28;;;;;;;16.38;9.73;;;;;;;-4.84;59.29;101150.09;5111233;28;20054;-63
2020/12/28 01:35:53;;;;;;;17.33;10.23;;;;;;;-4.81;59.50;101155.38;5110426;28;20070;-65
2020/12/28 01:38:19;;;;;;;18.75;10.20;;;;;;;-4.67;59.52;101172.84;5111113;28;20031;-64
2020/12/28 01:40:44;;;;;;;17.63;10.18;;;;;;;-4.66;59.51;101179.81;5110814;28;20088;-65
2020/12/28 01:43:10;;;;;;;17.38;9.93;;;;;;;-4.66;59.53;101177.19;5110884;28;20031;-64
2020/12/28 01:45:35;;;;;;;16.02;9.30;;;;;;;-4.69;59.71;101172.84;5110614;28;20076;-64
2020/12/28 01:48:01;;;;;;;17.55;9.63;;;;;;;-4.74;59.67;101161.47;5111041;28;20062;-65
2020/12/28 01:50:27;;;;;;;17.30;10.15;;;;;;;-4.45;59.52;101202.56;5110821;28;20032;-64
2020/12/28 01:52:52;;;;;;;16.88;9.73;;;;;;;-4.36;59.35;101194.75;5110632;28;20040;-63
2020/12/28 01:55:18;;;;;;;16.95;9.63;;;;;;;-4.51;58.96;101156.34;5110034;28;20035;-65
2020/12/28 01:57:43;;;;;;;16.52;9.93;;;;;;;-4.18;58.70;101193.03;5110694;28;20043;-66
2020/12/28 02:00:09;;;;;;;17.58;9.68;;;;;;;-4.10;58.78;101196.53;5110262;28;20055;-66
2020/12/28 02:02:36;;;;;;;17.13;10.13;;;;;;;-4.01;58.40;101200.03;5110733;28;20108;-63
2020/12/28 02:05:02;;;;;;;16.65;9.07;;;;;;;-3.90;58.10;101200.94;5110115;28;20510;-65
2020/12/28 02:07:33;;;;;;;14.30;8.80;;;;;;;-3.78;57.96;101194.84;5110512;28;20031;-67
2020/12/28 02:10:05;;;;;;;16.05;9.00;;;;;;;-3.75;57.40;101195.69;5110509;28;20040;-66
2020/12/28 02:12:30;;;;;;;18.80;9.68;;;;;;;-3.64;56.99;101208.78;5111108;28;20035;-66
2020/12/28 02:14:56;;;;;;;13.75;8.85;;;;;;;-3.60;57.01;101193.97;5110225;28;20039;-66
2020/12/28 02:17:24;;;;;;;14.02;8.60;;;;;;;-3.55;56.79;101201.84;5110440;28;20482;-66
2020/12/28 02:19:50;;;;;;;16.70;9.32;;;;;;;-3.54;56.56;101211.44;5110539;28;20027;-64
2020/12/28 02:22:15;;;;;;;16.60;8.63;;;;;;;-3.50;56.90;101194.84;5110352;28;20039;-66
2020/12/28 02:24:41;;;;;;;15.25;9.00;;;;;;;-3.54;56.95;101203.59;5110186;28;20529;-67
2020/12/28 02:27:06;;;;;;;16.75;9.05;;;;;;;-3.53;56.48;101215.81;5110004;28;20031;-67
2020/12/28 02:29:32;;;;;;;16.45;8.85;;;;;;;-3.53;56.59;101203.56;5110661;28;20034;-66
2020/12/28 02:31:59;;;;;;;14.27;8.85;;;;;;;-3.82;57.02;101149.47;5110049;28;20036;-66
2020/12/28 02:34:25;;;;;;;16.30;9.20;;;;;;;-3.53;57.10;101205.34;5109963;28;20046;-65
2020/12/28 02:36:51;;;;;;;15.52;8.68;;;;;;;-4.08;56.59;101124.16;5109802;28;20036;-65
2020/12/28 02:39:16;;;;;;;14.75;9.30;;;;;;;-3.52;56.98;101207.06;5109783;28;20110;-66
2020/12/28 02:41:42;;;;;;;16.58;9.90;;;;;;;-3.54;56.82;101209.69;5110014;28;20061;-66
2020/12/28 02:44:07;;;;;;;14.98;9.50;;;;;;;-3.53;57.21;101215.81;5110282;28;20042;-65
2020/12/28 02:46:33;;;;;;;15.98;9.27;;;;;;;-3.69;56.67;101160.81;5110069;28;20043;-67
2020/12/28 02:48:58;;;;;;;17.17;9.70;;;;;;;-3.55;56.79;101194.00;5109951;28;20035;-64
2020/12/28 02:51:23;;;;;;;17.25;9.38;;;;;;;-3.56;56.84;101190.47;5109944;28;20856;-67
2020/12/28 02:53:49;;;;;;;16.27;9.10;;;;;;;-3.64;56.54;101173.91;5110133;28;20080;-67
2020/12/28 02:56:14;;;;;;;16.13;9.75;;;;;;;-3.39;57.13;101219.28;5110053;28;20028;-67
2020/12/28 02:58:41;;;;;;;16.42;9.45;;;;;;;-3.50;57.00;101208.78;5109710;28;20031;-67
2020/12/28 03:01:07;;;;;;;17.75;9.20;;;;;;;-3.35;57.10;101213.19;5126813;28;20055;-65
2020/12/28 03:03:32;;;;;;;16.25;9.02;;;;;;;-3.36;56.40;101221.03;5112524;28;20351;-63
2020/12/28 03:05:58;;;;;;;17.33;9.48;;;;;;;-3.41;56.85;101197.44;5130495;27;20046;-65
2020/12/28 03:08:23;;;;;;;16.38;9.30;;;;;;;-3.56;56.45;101177.38;5133711;27;20103;-65
2020/12/28 03:10:49;;;;;;;20.23;10.02;;;;;;;-3.49;56.74;101189.63;5134499;27;20054;-66
2020/12/28 03:13:14;;;;;;;16.50;9.70;;;;;;;-3.40;56.42;101195.72;5110245;28;20036;-67
2020/12/28 03:15:40;;;;;;;15.07;9.15;;;;;;;-3.60;56.42;101162.56;5113251;28;20502;-65
2020/12/28 03:18:05;;;;;;;14.90;9.05;;;;;;;-3.32;56.61;101193.97;5113849;28;20115;-66
2020/12/28 03:20:31;;;;;;;16.55;9.40;;;;;;;-3.33;56.81;101187.88;5113658;28;20038;-66
2020/12/28 03:22:56;;;;;;;15.68;9.45;;;;;;;-3.38;56.41;101176.50;5113383;28;20110;-66
2020/12/28 03:25:22;;;;;;;15.15;9.05;;;;;;;-3.35;56.79;101180.88;5095272;28;20032;-63
2020/12/28 03:27:47;;;;;;;15.30;8.38;;;;;;;-3.32;56.47;101187.00;5113362;28;20428;-66
2020/12/28 03:30:12;;;;;;;18.00;9.25;;;;;;;-3.42;56.81;101173.91;5113404;28;20035;-66
2020/12/28 03:32:38;;;;;;;14.57;9.18;;;;;;;-3.32;56.97;101202.69;5113123;28;20036;-64
2020/12/28 03:35:04;;;;;;;14.90;9.00;;;;;;;-3.32;56.77;101212.28;5113533;28;20761;-67
2020/12/28 03:37:29;;;;;;;14.73;8.85;;;;;;;-3.33;57.32;101223.63;5113468;28;20118;-67
2020/12/28 03:39:55;;;;;;;16.02;8.20;;;;;;;-3.46;57.33;101183.50;5113055;28;20035;-66
2020/12/28 03:42:20;;;;;;;13.88;8.27;;;;;;;-3.42;57.30;101181.75;5113087;28;20667;-64
2020/12/28 03:44:46;;;;;;;14.30;8.35;;;;;;;-3.37;57.33;101198.34;5094960;28;20046;-65
2020/12/28 03:47:11;;;;;;;15.05;9.10;;;;;;;-3.40;56.96;101204.44;5113277;28;20034;-65
2020/12/28 03:49:37;;;;;;;12.70;8.25;;;;;;;-3.37;57.79;101225.41;5112748;28;20028;-66
2020/12/28 03:52:02;;;;;;;16.02;8.57;;;;;;;-3.49;57.28;101193.97;5113406;28;20043;-66
2020/12/28 03:54:28;;;;;;;15.93;9.32;;;;;;;-3.44;57.63;101218.41;5113270;28;20157;-67
2020/12/28 03:56:53;;;;;;;14.68;8.13;;;;;;;-3.61;57.07;101189.63;5094801;28;20084;-65
2020/12/28 03:59:18;;;;;;;16.45;9.18;;;;;;;-3.37;57.64;101220.19;5112607;28;20043;-65
2020/12/28 04:01:44;;;;;;;15.80;9.35;;;;;;;-3.49;57.69;101225.41;5112230;28;20050;-65
2020/12/28 04:04:09;;;;;;;15.38;8.73;;;;;;;-3.46;57.61;101215.81;5113092;28;20035;-67
2020/12/28 04:06:35;;;;;;;17.80;9.48;;;;;;;-3.35;57.52;101234.13;5112473;28;20063;-66
2020/12/28 04:09:00;;;;;;;16.02;8.63;;;;;;;-3.32;57.77;101242.00;5112535;28;20024;-69
2020/12/28 04:11:26;;;;;;;14.60;8.25;;;;;;;-3.29;57.51;101254.19;5112294;28;20496;-66
2020/12/28 04:13:51;;;;;;;17.10;8.43;;;;;;;-3.96;57.08;101146.84;5112771;28;20027;-67
2020/12/28 04:16:17;;;;;;;14.50;8.75;;;;;;;-3.19;57.10;101242.84;5112834;28;20044;-67
2020/12/28 04:18:42;;;;;;;14.80;8.77;;;;;;;-3.21;57.27;101247.22;5110601;28;20039;-65
2020/12/28 04:21:08;;;;;;;17.67;9.55;;;;;;;-3.49;57.25;101207.97;5112024;28;20042;-63
2020/12/28 04:23:34;;;;;;;17.85;8.38;;;;;;;-3.29;57.76;101245.47;5094515;28;20038;-64
2020/12/28 04:26:00;;;;;;;14.85;8.60;;;;;;;-3.61;57.36;101189.63;5112765;28;20471;-66
2020/12/28 04:28:25;;;;;;;15.85;8.90;;;;;;;-3.35;57.25;101249.84;5112054;28;20084;-64
2020/12/28 04:30:50;;;;;;;18.52;10.18;;;;;;;-3.51;57.60;101228.00;5111986;28;20410;-64
2020/12/28 04:33:16;;;;;;;14.43;8.95;;;;;;;-3.39;57.22;101242.84;5114521;27;20039;-64
2020/12/28 04:35:42;;;;;;;14.65;8.95;;;;;;;-3.43;57.16;101230.63;5130022;27;20039;-66
2020/12/28 04:38:07;;;;;;;16.45;10.05;;;;;;;-3.50;57.72;101234.97;5130254;27;20041;-65
2020/12/28 04:40:33;;;;;;;15.57;9.48;;;;;;;-3.65;57.84;101204.44;5113068;27;20035;-65
2020/12/28 04:43:01;;;;;;;16.27;9.63;;;;;;;-3.43;57.66;101242.88;5132457;27;20031;-66
2020/12/28 04:45:27;;;;;;;19.30;10.13;;;;;;;-3.35;57.85;101255.09;5132357;27;20482;-63
2020/12/28 04:47:54;;;;;;;19.98;9.88;;;;;;;-3.43;57.24;101214.91;5132165;27;20037;-66
2020/12/28 04:50:19;;;;;;;17.98;10.52;;;;;;;-3.33;57.51;101250.72;5132514;27;20034;-65
2020/12/28 04:52:45;;;;;;;15.05;9.50;;;;;;;-3.38;57.66;101248.97;5132018;27;20035;-66
2020/12/28 04:55:10;;;;;;;20.67;11.23;;;;;;;-3.45;57.76;101253.31;5132140;27;20083;-65
2020/12/28 04:57:36;;;;;;;16.60;10.43;;;;;;;-3.46;57.68;101241.09;5131643;27;20042;-64
2020/12/28 05:00:03;;;;;;;22.92;12.05;;;;;;;-3.79;58.02;101199.19;5132493;27;20047;-66
2020/12/28 05:02:31;;;;;;;18.40;11.05;;;;;;;-3.37;58.48;101267.31;5132131;27;20386;-64
2020/12/28 05:05:07;;;;;;;19.90;10.70;;;;;;;-3.33;58.16;101274.28;5132373;27;20042;-66
2020/12/28 05:07:33;;;;;;;17.67;10.77;;;;;;;-3.27;57.80;101280.41;5132075;27;20172;-64
2020/12/28 05:10:02;;;;;;;21.20;11.60;;;;;;;-3.25;58.11;101276.91;5131684;27;20039;-63
2020/12/28 05:12:28;;;;;;;19.48;11.20;;;;;;;-3.24;58.17;101262.06;5131688;27;20406;-65
2020/12/28 05:15:23;;;;;;;21.33;11.77;;;;;;;-3.11;58.36;101286.50;5130592;27;20038;-65
2020/12/28 05:17:53;;;;;;;20.55;12.02;;;;;;;-3.23;57.61;101274.28;5095457;27;20082;-65
2020/12/28 05:20:22;;;;;;;20.42;11.57;;;;;;;-3.17;57.94;101262.06;5113367;27;20034;-66
2020/12/28 05:22:54;;;;;;;24.35;12.93;;;;;;;-3.85;57.48;101169.56;5131607;27;20031;-65
2020/12/28 05:25:21;;;;;;;22.00;12.80;;;;;;;-3.18;57.44;101293.50;5131188;27;20035;-66
2020/12/28 05:27:48;;;;;;;24.23;14.10;;;;;;;-3.14;57.72;101295.22;5130602;27;20435;-65
2020/12/28 05:30:13;;;;;;;25.52;14.70;;;;;;;-3.85;57.33;101180.03;5131211;27;20454;-66
2020/12/28 05:32:44;;;;;;;23.35;13.40;;;;;;;-3.27;58.15;101290.88;5113165;27;20126;-66
2020/12/28 05:35:12;;;;;;;26.75;14.48;;;;;;;-3.32;57.46;101294.38;5131340;27;20383;-66
2020/12/28 05:37:38;;;;;;;24.33;13.82;;;;;;;-3.33;57.89;101297.88;5131269;27;20068;-70
2020/12/28 05:40:06;;;;;;;21.67;12.77;;;;;;;-3.40;58.10;101295.25;5131804;27;20030;-67
2020/12/28 05:42:31;;;;;;;24.20;14.38;;;;;;;-3.46;57.79;101283.91;5130638;27;20031;-63
2020/12/28 05:45:09;;;;;;;23.92;12.95;;;;;;;-3.40;58.47;101301.31;5112796;27;20817;-67
2020/12/28 05:47:43;;;;;;;25.52;13.50;;;;;;;-3.51;57.95;101279.50;5131275;27;20031;-65
2020/12/28 05:50:09;;;;;;;23.55;14.25;;;;;;;-3.39;57.91;101303.06;5131378;27;20397;-67
2020/12/28 05:52:48;;;;;;;23.55;13.50;;;;;;;-3.50;58.41;101276.88;5112956;27;20143;-61
2020/12/28 05:55:17;;;;;;;25.52;13.45;;;;;;;-3.36;57.58;101305.72;5131121;27;20505;-65
2020/12/28 05:57:46;;;;;;;24.25;12.93;;;;;;;-3.25;57.39;101307.47;5131240;27;20035;-65
2020/12/28 06:00:12;;;;;;;25.88;13.80;;;;;;;-3.30;57.70;101309.22;5131034;27;20569;-65
2020/12/28 06:02:39;;;;;;;23.48;12.95;;;;;;;-3.37;57.81;101321.44;5130694;27;20124;-63
2020/12/28 06:05:07;;;;;;;23.67;13.48;;;;;;;-3.50;57.52;101278.63;5131251;27;20035;-65
2020/12/28 06:07:33;;;;;;;24.05;13.32;;;;;;;-3.49;57.71;101285.63;5131133;27;20114;-61
2020/12/28 06:09:59;;;;;;;24.05;14.00;;;;;;;-3.46;57.99;101301.34;5117843;27;20410;-62
2020/12/28 06:12:24;;;;;;;22.60;12.45;;;;;;;-3.44;58.79;101311.81;5110370;28;20023;-63
2020/12/28 06:14:50;;;;;;;23.73;12.43;;;;;;;-3.63;57.98;101283.84;5110039;28;20050;-64
2020/12/28 06:17:16;;;;;;;24.23;14.07;;;;;;;-3.37;58.75;101309.22;5110091;28;20453;-63
2020/12/28 06:19:42;;;;;;;25.00;14.13;;;;;;;-3.34;58.11;101309.22;5110169;28;20027;-71
2020/12/28 06:22:22;;;;;;;21.67;12.73;;;;;;;-3.59;58.79;101252.47;5109901;28;20097;-64
2020/12/28 06:24:59;;;;;;;23.33;13.07;;;;;;;-3.11;57.83;101315.31;5109929;28;20035;-64
2020/12/28 06:27:29;;;;;;;22.48;13.15;;;;;;;-3.12;57.62;101318.81;5109877;28;20075;-62
2020/12/28 06:30:25;;;;;;;24.60;13.45;;;;;;;-3.31;58.16;101295.22;5109741;28;20039;-62
2020/12/28 06:33:02;;;;;;;22.60;12.85;;;;;;;-3.51;58.36;101279.50;5109658;28;20561;-64
2020/12/28 06:35:29;;;;;;;24.85;12.43;;;;;;;-3.26;57.71;101303.09;5112057;28;20036;-66
2020/12/28 06:37:55;;;;;;;23.52;12.65;;;;;;;-3.23;57.85;101313.56;5129799;28;21056;-65
2020/12/28 06:40:35;;;;;;;24.52;11.75;;;;;;;-3.20;58.43;101314.47;5130149;28;20064;-64
2020/12/28 06:43:15;;;;;;;25.95;13.77;;;;;;;-3.29;58.60;101321.44;5111600;27;20080;-65
2020/12/28 06:45:42;;;;;;;22.48;11.90;;;;;;;-3.37;58.62;101317.06;5134607;27;20042;-64
2020/12/28 06:48:17;;;;;;;23.02;12.70;;;;;;;-3.38;59.28;101323.16;5134288;27;20042;-65
2020/12/28 06:50:42;;;;;;;25.40;13.25;;;;;;;-3.40;59.17;101327.53;5133823;27;20266;-65
2020/12/28 06:53:08;;;;;;;23.45;13.07;;;;;;;-3.29;59.25;101331.91;5134270;27;20487;-65
2020/12/28 06:55:33;;;;;;;26.17;14.57;;;;;;;-3.32;59.09;101324.91;5133831;27;20038;-66
2020/12/28 06:58:02;;;;;;;26.98;14.68;;;;;;;-3.30;59.04;101322.31;5114312;27;21491;-65
2020/12/28 07:00:28;;;;;;;28.00;15.98;;;;;;;-3.31;58.64;101331.91;5133636;27;20482;-64
2020/12/28 07:02:55;;;;;;;31.38;16.13;;;;;;;-3.21;59.28;101345.88;5115533;27;20051;-67
2020/12/28 07:05:27;;;;;;;28.15;14.90;;;;;;;-3.31;59.33;101313.56;5131124;27;20038;-66
2020/12/28 07:07:53;;;;;;;31.73;15.57;;;;;;;-3.05;58.75;101346.75;5133798;27;20047;-67
2020/12/28 07:10:23;;;;;;;28.80;15.27;;;;;;;-3.12;59.00;101338.06;5134153;27;20080;-65
2020/12/28 07:12:50;;;;;;;33.63;15.63;;;;;;;-3.10;59.13;101338.03;5133655;27;20095;-66
2020/12/28 07:15:17;;;;;;;28.95;15.02;;;;;;;-3.08;59.03;101331.03;5133526;27;20114;-64
2020/12/28 07:17:43;;;;;;;30.92;14.68;;;;;;;-3.02;59.00;101344.13;5133747;27;20039;-65
2020/12/28 07:20:13;;;;;;;33.17;16.27;;;;;;;-3.11;58.74;101347.66;5134141;27;20485;-65
2020/12/28 07:22:43;;;;;;;37.38;16.65;;;;;;;-3.19;58.86;101358.13;5133916;27;20031;-64
2020/12/28 07:25:11;;;;;;;32.15;16.33;;;;;;;-3.42;59.53;101334.50;5134288;27;20494;-64
2020/12/28 07:27:39;;;;;;;36.95;18.02;;;;;;;-3.24;59.35;101348.50;5115597;27;20027;-68
2020/12/28 07:30:10;;;;;;;41.33;20.10;;;;;;;-3.13;59.67;101335.41;5133716;27;20039;-69
2020/12/28 07:32:36;;;;;;;43.55;21.02;;;;;;;-3.03;58.90;101345.91;5133919;27;20039;-69
2020/12/28 07:35:02;;;;;;;51.88;24.33;;;;;;;-3.00;58.30;101333.66;5133297;27;20555;-70
2020/12/28 07:37:29;;;;;;;45.03;23.15;;;;;;;-3.04;58.72;101338.91;5133699;27;20035;-70
2020/12/28 07:39:55;;;;;;;49.97;23.85;;;;;;;-3.11;58.42;101323.19;5114903;27;20397;-70
2020/12/28 07:42:22;;;;;;;51.10;24.10;;;;;;;-3.08;58.19;101352.91;5132687;27;20039;-68
2020/12/28 07:45:09;;;;;;;48.20;23.02;;;;;;;-3.23;59.28;101337.16;5133412;27;20034;-71
2020/12/28 07:47:35;;;;;;;46.50;21.95;;;;;;;-3.08;58.60;101360.75;5134065;27;20023;-71
2020/12/28 07:50:02;;;;;;;41.97;19.60;;;;;;;-2.97;59.06;101360.75;5133698;27;20152;-69
2020/12/28 07:52:29;;;;;;;43.10;20.55;;;;;;;-3.06;58.80;101355.50;5132770;27;20039;-71
2020/12/28 07:55:14;;;;;;;36.65;19.20;;;;;;;-3.00;58.83;101365.13;5133636;27;20039;-69
2020/12/28 07:58:07;;;;;;;40.88;19.77;;;;;;;-2.95;59.44;101345.91;5133435;27;20035;-69
2020/12/28 08:00:52;;;;;;;35.60;15.48;;;;;;;-2.77;58.45;101358.13;5132955;27;20588;-64
2020/12/28 08:03:45;;;;;;;39.70;19.27;;;;;;;-2.89;58.24;101350.28;5112043;27;20070;-70
2020/12/28 08:06:13;;;;;;;39.72;18.80;;;;;;;-2.91;57.64;101347.66;5112849;27;20031;-70
2020/12/28 08:08:40;;;;;;;38.28;17.10;;;;;;;-3.25;57.75;101287.41;5115698;27;20505;-65
2020/12/28 08:11:06;;;;;;;37.28;18.90;;;;;;;-2.98;57.51;101352.88;5114708;27;20043;-70
2020/12/28 08:13:33;;;;;;;35.90;16.73;;;;;;;-2.98;57.96;101337.16;5132995;27;20031;-69
2020/12/28 08:16:12;;;;;;;38.15;18.95;;;;;;;-2.93;57.25;101324.91;5131423;27;20083;-69
2020/12/28 08:18:48;;;;;;;40.47;18.98;;;;;;;-2.57;56.36;101352.00;5110614;27;20087;-69
2020/12/28 08:21:14;;;;;;;39.95;18.27;;;;;;;-2.74;56.94;101337.16;5130673;27;20035;-66
2020/12/28 08:23:40;;;;;;;26.77;12.05;;;;;;;-2.83;56.44;101292.59;5130678;27;20066;-67
2020/12/28 08:26:26;;;;;;;35.58;17.27;;;;;;;-2.87;55.95;101264.66;5131217;27;20066;-72
2020/12/28 08:28:54;;;;;;;42.03;18.63;;;;;;;-2.47;55.56;101358.97;5129724;27;20080;-71
2020/12/28 08:31:30;;;;;;;44.55;20.60;;;;;;;-2.51;56.22;101346.72;5123408;27;20084;-72
2020/12/28 08:34:14;;;;;;;38.22;18.83;;;;;;;-2.23;56.07;101357.16;5131445;27;20031;-70
2020/12/28 08:36:42;;;;;;;38.67;19.35;;;;;;;-2.02;55.17;101365.84;5132571;27;20031;-69
2020/12/28 08:39:14;;;;;;;42.40;18.23;;;;;;;-1.91;54.68;101353.56;5132502;27;20050;-68
2020/12/28 08:41:53;;;;;;;35.88;16.33;;;;;;;-1.83;54.01;101355.28;5131955;27;20050;-69
2020/12/28 08:44:25;;;;;;;37.78;17.95;;;;;;;-2.12;54.05;101361.50;5130532;27;20039;-68
2020/12/28 08:46:51;;;;;;;35.08;17.85;;;;;;;-2.26;54.84;101346.66;5125195;27;20099;-63
2020/12/28 08:49:28;;;;;;;34.05;16.02;;;;;;;-2.25;54.61;101358.91;5128393;27;20129;-66
2020/12/28 08:51:54;;;;;;;30.92;15.63;;;;;;;-2.29;54.47;101367.66;5115685;27;20031;-68
2020/12/28 08:54:28;;;;;;;27.98;15.40;;;;;;;-2.34;55.23;101365.03;5131494;27;20027;-68
2020/12/28 08:56:54;;;;;;;27.20;14.27;;;;;;;-2.26;54.90;101362.41;5100123;28;20126;-67
2020/12/28 08:59:20;;;;;;;24.65;14.15;;;;;;;-2.12;54.66;101367.63;5127482;27;20456;-69
2020/12/28 09:01:52;;;;;;;29.40;13.82;;;;;;;-2.12;53.98;101358.88;5115944;27;20054;-69
2020/12/28 09:04:18;;;;;;;24.45;13.30;;;;;;;-2.32;54.77;101323.09;5101577;28;20130;-67
2020/12/28 09:06:44;;;;;;;26.05;13.73;;;;;;;-2.36;54.42;101324.84;5127658;27;20056;-64
2020/12/28 09:09:09;;;;;;;25.48;13.63;;;;;;;-2.19;54.46;101361.50;5129378;27;20152;-67
2020/12/28 09:11:35;;;;;;;21.33;12.10;;;;;;;-2.29;54.29;101338.81;5112114;27;20399;-69
2020/12/28 09:14:00;;;;;;;24.50;14.10;;;;;;;-2.28;54.39;101352.81;5123733;27;20060;-65
2020/12/28 09:16:26;;;;;;;25.98;14.50;;;;;;;-2.27;54.57;101346.69;5117171;27;20262;-64
2020/12/28 09:18:52;;;;;;;24.13;11.65;;;;;;;-2.31;53.79;101353.69;5116598;27;20032;-66
2020/12/28 09:21:17;;;;;;;26.50;12.98;;;;;;;-2.47;53.94;101343.22;5126860;27;20050;-67
2020/12/28 09:23:42;;;;;;;22.02;11.85;;;;;;;-2.76;54.89;101327.56;5128206;27;20058;-66
2020/12/28 09:26:08;;;;;;;24.23;12.02;;;;;;;-2.85;54.85;101333.69;5117271;27;20574;-68
2020/12/28 09:28:33;;;;;;;23.40;12.98;;;;;;;-2.96;55.64;101345.91;5120673;27;20550;-63
2020/12/28 09:30:59;;;;;;;21.85;10.95;;;;;;;-2.90;55.41;101338.91;5124436;27;20035;-65
2020/12/28 09:33:24;;;;;;;21.48;10.95;;;;;;;-2.99;55.66;101349.41;5114055;27;20054;-65
2020/12/28 09:35:50;;;;;;;21.20;11.88;;;;;;;-3.05;55.41;101368.63;5127077;27;20031;-66
2020/12/28 09:38:15;;;;;;;24.23;11.73;;;;;;;-3.27;55.77;101331.03;5117439;27;20039;-64
2020/12/28 09:40:41;;;;;;;26.17;11.77;;;;;;;-3.28;56.27;101365.09;5120246;27;20028;-63
2020/12/28 09:43:06;;;;;;;21.95;11.55;;;;;;;-3.24;55.70;101351.13;5126271;27;20031;-68
2020/12/28 09:45:38;;;;;;;28.67;12.30;;;;;;;-3.33;55.86;101345.00;5113687;27;20119;-66
2020/12/28 09:48:04;;;;;;;21.50;11.35;;;;;;;-3.40;56.18;101330.13;5124972;27;20112;-66
2020/12/28 09:50:30;;;;;;;20.58;11.20;;;;;;;-3.40;55.80;101332.75;5119901;27;20114;-64
2020/12/28 09:52:55;;;;;;;25.48;12.20;;;;;;;-3.51;56.36;101308.31;5100256;28;20190;-63
2020/12/28 09:55:21;;;;;;;27.20;12.25;;;;;;;-3.38;56.11;101338.00;5127025;27;20038;-67
2020/12/28 09:57:47;;;;;;;21.40;11.32;;;;;;;-3.24;56.12;101345.88;5113212;27;20483;-68
2020/12/28 10:00:14;;;;;;;24.33;11.10;;;;;;;-3.77;55.91;101235.84;5123282;27;20141;-69
2020/12/28 10:02:41;;;;;;;20.75;10.93;;;;;;;-3.18;56.24;101332.78;5121469;27;20163;-68
2020/12/28 10:05:09;;;;;;;21.10;9.25;;;;;;;-3.15;55.78;101316.22;5115672;27;20089;-68
2020/12/28 10:07:37;;;;;;;19.70;10.45;;;;;;;-3.21;55.97;101330.16;5126918;27;20482;-68
2020/12/28 10:10:07;;;;;;;25.02;10.90;;;;;;;-3.28;55.84;101338.91;5124304;27;20039;-56
2020/12/28 10:12:33;;;;;;;21.17;10.48;;;;;;;-3.30;56.10;101348.50;5125210;27;20100;-62
2020/12/28 10:14:59;;;;;;;24.95;11.10;;;;;;;-3.22;56.48;101345.03;5121159;27;20030;-65
2020/12/28 10:17:24;;;;;;;22.23;10.93;;;;;;;-3.18;56.01;101341.53;5128913;27;20031;-61
2020/12/28 10:19:50;;;;;;;20.85;10.43;;;;;;;-3.23;56.07;101310.97;5125105;27;20130;-64
2020/12/28 10:22:15;;;;;;;23.48;11.40;;;;;;;-3.04;56.24;101331.06;5111287;28;20027;-66
2020/12/28 10:24:41;;;;;;;23.95;11.55;;;;;;;-3.37;55.94;101275.16;5120541;28;20057;-69
2020/12/28 10:27:06;;;;;;;22.02;10.45;;;;;;;-2.90;55.57;101328.44;5122896;28;20031;-69
2020/12/28 10:29:32;;;;;;;24.83;11.18;;;;;;;-2.90;55.57;101325.81;5120414;28;20564;-71
2020/12/28 10:31:58;;;;;;;21.30;10.88;;;;;;;-2.94;55.39;101315.31;5115733;28;20080;-69
2020/12/28 10:34:25;;;;;;;25.67;11.48;;;;;;;-2.88;56.12;101320.56;5126306;28;20057;-71
2020/12/28 10:36:51;;;;;;;23.98;11.57;;;;;;;-2.90;55.50;101341.53;5120593;28;20083;-70
2020/12/28 10:39:16;;;;;;;23.33;10.45;;;;;;;-2.94;55.70;101325.78;5120870;28;20119;-63
2020/12/28 10:41:42;;;;;;;19.13;10.10;;;;;;;-2.97;55.67;101337.19;5121203;28;20027;-59
2020/12/28 10:44:07;;;;;;;21.33;10.13;;;;;;;-3.07;56.12;101325.81;5130040;28;20031;-58
2020/12/28 10:46:36;;;;;;;20.92;11.07;;;;;;;-2.96;55.42;101340.66;5112932;28;20185;-57
2020/12/28 10:49:01;;;;;;;17.20;10.38;;;;;;;-3.30;56.29;101296.97;5123175;28;20051;-64
2020/12/28 10:51:27;;;;;;;21.00;10.43;;;;;;;-3.08;56.21;101320.56;5119789;28;20489;-62
2020/12/28 10:53:53;;;;;;;18.95;10.35;;;;;;;-3.21;56.02;101311.81;5115679;28;20032;-65
2020/12/28 10:56:26;;;;;;;19.92;10.45;;;;;;;-3.14;56.26;101329.28;5126031;28;20030;-61
2020/12/28 10:58:52;;;;;;;26.17;10.85;;;;;;;-3.15;56.49;101330.16;5114600;28;20087;-63
2020/12/28 11:01:21;;;;;;;19.85;10.70;;;;;;;-3.09;56.12;101335.44;5120857;28;20059;-63
2020/12/28 11:03:46;;;;;;;25.13;11.50;;;;;;;-3.05;55.87;101320.56;5121997;28;20043;-63
2020/12/28 11:06:12;;;;;;;23.60;11.80;;;;;;;-2.87;56.04;101332.81;5095243;28;20042;-61
2020/12/28 11:08:38;;;;;;;20.83;10.55;;;;;;;-2.89;56.24;101310.97;5126468;28;20031;-64
2020/12/28 11:11:03;;;;;;;23.80;11.82;;;;;;;-2.54;55.62;101330.13;5115869;28;20027;-63
2020/12/28 11:13:29;;;;;;;25.35;10.90;;;;;;;-2.39;55.15;101331.84;5129248;28;20035;-63